Berne, Indiana
Current Conditions -  °F | °C
As of 9:54 AM on Monday 22 Dec 2014 (Local Time) from KFWA Reporting Station
Haze Haze  
Wind Chill: 20°   Ceiling: 4600
Heat Index: 29°   Visibility: 4mi
Dew Point: 25°   Wind: 10mph
Humidity: 85%   Direction: 70°ENE
Pressure: 29.99"   Gusts: NA
Location:  40.66°N, 84.95°W
Report Text: KFWA 221454Z 07009KT 4SM BR BKN046 OVC100 M02/M04 A2999 RMK AO2 PRESFR SLP166 T10171039 56015
Loading
Personal Weather Stations






























Interactive Weather Map New forecast layout! Learn more

10-Day Weather Forecast

Advertisements
Track Severe Weather on mobile